createdAt,value
2018-06-19T00:01:54.426Z,19.20
2018-06-19T00:04:22.581Z,19.20
2018-06-19T00:06:50.745Z,19.30
2018-06-19T00:09:18.950Z,19.30
2018-06-19T00:11:47.203Z,19.30
2018-06-19T00:14:15.375Z,19.20
2018-06-19T00:16:43.601Z,19.20
2018-06-19T00:19:11.830Z,19.10
2018-06-19T00:21:49.206Z,19.00
2018-06-19T00:24:17.392Z,19.00
2018-06-19T00:29:13.551Z,18.90
2018-06-19T00:34:09.702Z,18.80
2018-06-19T00:36:37.902Z,18.70
2018-06-19T00:39:07.985Z,18.70
2018-06-19T00:44:04.174Z,18.60
2018-06-19T00:46:33.421Z,18.50
2018-06-19T00:51:29.573Z,18.40
2018-06-19T00:53:57.769Z,18.40
2018-06-19T00:56:37.257Z,18.40
2018-06-19T00:59:05.421Z,18.40
2018-06-19T01:01:33.638Z,18.30
2018-06-19T01:04:01.851Z,18.30
2018-06-19T01:06:30.038Z,18.30
2018-06-19T01:08:58.233Z,18.30
2018-06-19T01:11:26.463Z,18.30
2018-06-19T01:13:54.683Z,18.20
2018-06-19T01:16:22.875Z,18.30
2018-06-19T01:21:19.025Z,18.20
2018-06-19T01:23:47.236Z,18.20
2018-06-19T01:26:15.441Z,18.20
2018-06-19T01:28:43.684Z,18.20
2018-06-19T01:31:11.821Z,18.20
2018-06-19T01:33:40.033Z,18.20
2018-06-19T01:36:08.258Z,18.20
2018-06-19T01:38:36.463Z,18.20
2018-06-19T01:41:04.680Z,18.10
2018-06-19T01:43:32.885Z,18.10
2018-06-19T01:48:29.071Z,18.10
2018-06-19T01:50:57.273Z,18.10
2018-06-19T01:53:25.458Z,18.10
2018-06-19T01:55:53.728Z,18.10
2018-06-19T01:58:21.953Z,18.10
2018-06-19T02:00:50.193Z,18.10
2018-06-19T02:03:18.373Z,18.10
2018-06-19T02:05:46.586Z,18.10
2018-06-19T02:08:14.877Z,18.10
2018-06-19T02:10:43.077Z,18.10
2018-06-19T02:13:11.277Z,18.00
2018-06-19T02:18:07.421Z,18.00
2018-06-19T02:23:03.593Z,18.00
2018-06-19T02:25:31.792Z,18.00
2018-06-19T02:27:59.985Z,18.00
2018-06-19T02:30:28.460Z,18.00
2018-06-19T02:32:56.633Z,18.00
2018-06-19T02:35:24.933Z,18.00
2018-06-19T02:37:53.033Z,18.10
2018-06-19T02:40:21.225Z,18.10
2018-06-19T02:42:49.422Z,18.10
2018-06-19T02:45:17.624Z,18.10
2018-06-19T02:47:45.813Z,18.10
2018-06-19T02:50:14.044Z,18.10
2018-06-19T02:52:42.338Z,18.00
2018-06-19T02:55:10.517Z,17.90
2018-06-19T02:57:38.706Z,17.90
2018-06-19T03:00:06.942Z,17.90
2018-06-19T03:02:35.151Z,17.90
2018-06-19T03:05:03.354Z,17.90
2018-06-19T03:07:31.578Z,17.90
2018-06-19T03:09:59.837Z,17.90
2018-06-19T03:12:28.029Z,17.90
2018-06-19T03:14:56.505Z,17.90
2018-06-19T03:17:24.810Z,17.90
2018-06-19T03:19:53.010Z,17.90
2018-06-19T03:22:21.229Z,17.90
2018-06-19T03:24:49.549Z,17.90
2018-06-19T03:27:17.741Z,17.80
2018-06-19T03:29:45.919Z,17.80
2018-06-19T03:32:14.109Z,17.70
2018-06-19T03:34:42.294Z,17.70
2018-06-19T03:37:10.514Z,17.70
2018-06-19T03:39:38.705Z,17.70
2018-06-19T03:44:34.842Z,17.70
2018-06-19T03:47:03.030Z,17.80
2018-06-19T03:49:31.242Z,17.80
2018-06-19T03:51:59.431Z,17.80
2018-06-19T03:54:27.645Z,17.80
2018-06-19T03:56:55.825Z,17.90
2018-06-19T04:01:52.018Z,17.90
2018-06-19T04:04:20.201Z,18.00
2018-06-19T04:06:48.385Z,18.00
2018-06-19T04:09:16.589Z,18.00
2018-06-19T04:11:44.792Z,18.00
2018-06-19T04:14:13.002Z,18.10
2018-06-19T04:16:41.205Z,18.10
2018-06-19T04:19:09.437Z,18.10
2018-06-19T04:21:37.626Z,18.10
2018-06-19T04:24:05.841Z,18.00
2018-06-19T04:29:01.998Z,18.00
2018-06-19T04:31:30.193Z,18.10
2018-06-19T04:33:58.398Z,18.10
2018-06-19T04:36:26.575Z,18.10
2018-06-19T04:38:54.768Z,18.10
2018-06-19T04:41:22.973Z,18.10
2018-06-19T04:43:51.403Z,18.10
2018-06-19T04:46:19.630Z,18.10
2018-06-19T04:48:47.858Z,18.20
2018-06-19T04:51:16.070Z,18.30
2018-06-19T04:53:44.254Z,18.30
2018-06-19T04:56:12.494Z,18.30
2018-06-19T04:58:40.685Z,18.40
2018-06-19T05:03:36.886Z,18.50
2018-06-19T05:06:05.261Z,18.60
2018-06-19T05:08:33.456Z,18.80
2018-06-19T05:11:01.691Z,18.80
2018-06-19T05:13:29.894Z,18.90
2018-06-19T05:15:58.121Z,19.00
2018-06-19T05:20:54.294Z,19.20
2018-06-19T05:23:22.525Z,19.20
2018-06-19T05:25:50.743Z,19.20
2018-06-19T05:28:19.142Z,19.20
2018-06-19T05:30:47.356Z,19.40
2018-06-19T05:33:15.580Z,19.30
2018-06-19T05:35:43.797Z,19.40
2018-06-19T05:38:12.026Z,19.40
2018-06-19T05:40:40.273Z,19.50
2018-06-19T05:43:08.559Z,19.60
2018-06-19T05:45:36.785Z,19.70
2018-06-19T05:48:05.002Z,19.70
2018-06-19T05:50:33.383Z,19.80
2018-06-19T05:53:01.626Z,19.90
2018-06-19T05:55:29.890Z,20.10
2018-06-19T05:57:58.107Z,20.20
2018-06-19T06:02:54.289Z,20.30
2018-06-19T06:05:22.486Z,20.40
2018-06-19T06:07:50.763Z,20.30
2018-06-19T06:10:19.039Z,20.30
2018-06-19T06:12:47.573Z,20.30
2018-06-19T06:15:15.822Z,20.50
2018-06-19T06:20:12.246Z,20.90
2018-06-19T06:22:40.769Z,21.10
2018-06-19T06:25:09.042Z,21.20
2018-06-19T06:30:05.277Z,21.40
2018-06-19T06:32:33.551Z,21.60
2018-06-19T06:35:02.008Z,21.60
2018-06-19T06:37:30.270Z,21.80
2018-06-19T06:39:58.486Z,21.90
2018-06-19T06:42:26.735Z,21.90
2018-06-19T06:44:55.015Z,22.00
2018-06-19T06:47:23.149Z,21.90
2018-06-19T06:49:51.337Z,21.90
2018-06-19T06:52:19.536Z,21.80
2018-06-19T06:54:47.751Z,21.50
2018-06-19T06:57:16.175Z,21.40
2018-06-19T06:59:44.423Z,21.40
2018-06-19T07:02:12.610Z,21.30
2018-06-19T07:04:40.869Z,21.20
2018-06-19T07:07:09.113Z,21.20
2018-06-19T07:09:37.337Z,21.20
2018-06-19T07:12:05.998Z,21.20
2018-06-19T07:14:34.205Z,21.20
2018-06-19T07:17:02.386Z,21.40
2018-06-19T07:19:31.679Z,21.60
2018-06-19T07:21:59.854Z,21.80
2018-06-19T07:24:28.063Z,22.00
2018-06-19T07:26:56.303Z,22.20
2018-06-19T07:29:24.478Z,22.50
2018-06-19T07:31:52.670Z,22.70
2018-06-19T07:34:20.893Z,22.90
2018-06-19T07:36:49.155Z,23.30
2018-06-19T07:39:17.330Z,23.50
2018-06-19T07:44:13.575Z,23.60
2018-06-19T07:46:41.793Z,23.70
2018-06-19T07:49:09.991Z,23.50
2018-06-19T07:51:38.246Z,23.40
2018-06-19T07:54:06.470Z,23.30
2018-06-19T07:56:34.703Z,23.20
2018-06-19T07:59:02.915Z,23.30
2018-06-19T08:01:31.137Z,23.40
2018-06-19T08:03:59.333Z,23.40
2018-06-19T08:06:27.744Z,23.40
2018-06-19T08:08:56.038Z,23.60
2018-06-19T08:13:52.354Z,23.80
2018-06-19T08:16:20.575Z,23.90
2018-06-19T08:18:48.849Z,24.00
2018-06-19T08:21:17.098Z,24.10
2018-06-19T08:23:45.497Z,24.10
2018-06-19T08:26:13.709Z,24.10
2018-06-19T08:28:41.997Z,24.20
2018-06-19T08:31:10.225Z,24.20
2018-06-19T08:36:06.518Z,24.50
2018-06-19T08:38:35.000Z,24.50
2018-06-19T08:41:03.351Z,24.60
2018-06-19T08:43:31.601Z,24.50
2018-06-19T08:46:00.086Z,24.50
2018-06-19T08:48:28.366Z,24.30
2018-06-19T08:50:57.292Z,24.20
2018-06-19T08:53:25.585Z,24.00
2018-06-19T08:55:53.812Z,23.70
2018-06-19T08:58:22.090Z,23.60
2018-06-19T09:03:18.470Z,23.40
2018-06-19T09:05:46.757Z,23.30
2018-06-19T09:08:15.106Z,23.10
2018-06-19T09:10:43.363Z,22.80
2018-06-19T09:13:11.686Z,22.80
2018-06-19T09:15:39.955Z,22.70
2018-06-19T09:18:08.334Z,22.60
2018-06-19T09:20:36.692Z,22.50
2018-06-19T09:23:05.072Z,22.60
2018-06-19T09:25:33.406Z,22.70
2018-06-19T09:28:01.644Z,22.80
2018-06-19T09:30:30.314Z,22.90
2018-06-19T09:32:58.662Z,23.10
2018-06-19T09:35:27.054Z,23.20
2018-06-19T09:37:55.380Z,23.20
2018-06-19T09:40:23.643Z,23.30
2018-06-19T09:42:51.926Z,23.40
2018-06-19T09:45:20.259Z,23.60
2018-06-19T09:47:48.593Z,23.90
2018-06-19T09:50:19.207Z,24.30
2018-06-19T09:52:47.791Z,24.60
2018-06-19T09:55:16.229Z,24.80
2018-06-19T09:57:44.637Z,25.00
2018-06-19T10:00:17.261Z,25.30
2018-06-19T10:02:45.710Z,25.50
2018-06-19T10:05:14.153Z,25.70
2018-06-19T10:10:11.387Z,26.20
2018-06-19T10:12:39.832Z,26.20
2018-06-19T10:15:08.200Z,26.00
2018-06-19T10:17:38.397Z,26.00
2018-06-19T10:20:06.774Z,25.90
2018-06-19T10:22:35.611Z,25.80
2018-06-19T10:25:04.863Z,25.70
2018-06-19T10:27:33.193Z,25.70
2018-06-19T10:30:01.533Z,25.70
2018-06-19T10:32:29.874Z,25.70
2018-06-19T10:34:58.172Z,25.90
2018-06-19T10:37:26.551Z,26.20
2018-06-19T10:39:54.909Z,26.70
2018-06-19T10:42:23.197Z,27.10
2018-06-19T10:44:51.478Z,27.60
2018-06-19T10:47:19.893Z,28.00
2018-06-19T10:49:48.134Z,28.20
2018-06-19T10:54:44.392Z,28.10
2018-06-19T10:57:12.636Z,28.10
2018-06-19T10:59:41.348Z,28.20
2018-06-19T11:02:09.667Z,28.20
2018-06-19T11:04:38.071Z,28.40
2018-06-19T11:07:06.700Z,28.60
2018-06-19T11:09:34.943Z,28.90
2018-06-19T11:12:03.335Z,28.90
2018-06-19T11:14:31.726Z,29.10
2018-06-19T11:17:00.174Z,29.40
2018-06-19T11:19:28.686Z,29.60
2018-06-19T11:24:25.385Z,29.30
2018-06-19T11:26:53.765Z,28.80
2018-06-19T11:29:22.024Z,28.60
2018-06-19T11:31:50.381Z,28.30
2018-06-19T11:34:19.153Z,28.00
2018-06-19T11:36:47.640Z,27.90
2018-06-19T11:39:15.881Z,27.90
2018-06-19T11:41:44.607Z,28.10
2018-06-19T11:44:12.876Z,28.50
2018-06-19T11:46:41.445Z,28.80
2018-06-19T11:49:10.105Z,29.10
2018-06-19T11:51:38.275Z,29.30
2018-06-19T11:54:06.516Z,29.30
2018-06-19T11:56:34.778Z,29.10
2018-06-19T11:59:03.066Z,29.00
2018-06-19T12:01:31.630Z,28.60
2018-06-19T12:04:02.083Z,28.30
2018-06-19T12:06:30.354Z,28.20
2018-06-19T12:08:58.647Z,28.30
2018-06-19T12:11:27.151Z,28.50
2018-06-19T12:13:55.436Z,28.70
2018-06-19T12:16:24.056Z,28.80
2018-06-19T12:18:52.320Z,29.50
2018-06-19T12:21:20.894Z,31.10
2018-06-19T12:23:50.039Z,33.40
2018-06-19T12:26:18.475Z,35.20
2018-06-19T12:28:46.756Z,36.40
2018-06-19T12:31:15.150Z,36.80
2018-06-19T12:33:43.658Z,36.90
2018-06-19T12:36:11.975Z,36.70
2018-06-19T12:38:40.276Z,36.90
2018-06-19T12:41:08.582Z,37.50
2018-06-19T12:43:37.297Z,38.10
2018-06-19T12:46:05.882Z,39.20
2018-06-19T12:48:35.090Z,39.20
2018-06-19T12:52:15.704Z,38.80
2018-06-19T12:55:53.560Z,38.60
2018-06-19T12:58:22.233Z,40.30
2018-06-19T13:00:50.911Z,42.60
2018-06-19T13:03:30.322Z,43.90
2018-06-19T13:06:10.441Z,44.70
2018-06-19T13:08:39.101Z,45.40
2018-06-19T13:11:08.195Z,46.40
2018-06-19T13:13:47.714Z,47.30
2018-06-19T13:16:27.220Z,47.80
2018-06-19T13:19:06.842Z,48.30
2018-06-19T13:21:35.370Z,48.60
2018-06-19T13:24:03.892Z,47.10
2018-06-19T13:26:32.510Z,46.40
2018-06-19T13:29:39.485Z,44.90
2018-06-19T13:32:07.817Z,43.00
2018-06-19T13:37:05.530Z,40.30
2018-06-19T13:39:34.575Z,39.90
2018-06-19T13:42:14.961Z,40.80
2018-06-19T13:44:56.358Z,41.90
2018-06-19T13:47:25.043Z,42.40
2018-06-19T13:49:53.478Z,41.70
2018-06-19T13:52:21.870Z,40.90
2018-06-19T13:54:50.180Z,39.50
2018-06-19T13:57:34.971Z,38.30
2018-06-19T14:00:04.448Z,37.80
2018-06-19T14:02:32.702Z,38.70
2018-06-19T14:05:01.410Z,40.40
2018-06-19T14:07:31.579Z,41.40
2018-06-19T14:10:11.177Z,40.80
2018-06-19T14:12:58.040Z,39.90
2018-06-19T14:15:27.777Z,41.30
2018-06-19T14:17:56.474Z,44.10
2018-06-19T14:20:25.767Z,46.50
2018-06-19T14:22:54.125Z,48.10
2018-06-19T14:25:22.763Z,49.20
2018-06-19T14:27:51.074Z,50.20
2018-06-19T14:30:19.441Z,51.20
2018-06-19T14:32:47.878Z,51.80
2018-06-19T14:35:17.270Z,52.30
2018-06-19T14:37:45.442Z,52.80
2018-06-19T14:40:14.209Z,52.50
2018-06-19T14:42:42.420Z,52.40
2018-06-19T14:45:11.166Z,51.90
2018-06-19T14:47:39.518Z,50.10
2018-06-19T14:50:07.934Z,48.90
2018-06-19T14:52:36.509Z,49.30
2018-06-19T14:55:05.350Z,49.80
2018-06-19T14:57:33.554Z,49.00
2018-06-19T15:00:01.747Z,47.40
2018-06-19T15:02:30.168Z,45.10
2018-06-19T15:04:59.165Z,42.60
2018-06-19T15:07:31.636Z,40.60
2018-06-19T15:09:59.833Z,38.80
2018-06-19T15:12:28.061Z,37.40
2018-06-19T15:14:56.529Z,36.90
2018-06-19T15:17:25.510Z,38.00
2018-06-19T15:19:54.042Z,40.00
2018-06-19T15:22:22.230Z,40.20
2018-06-19T15:24:50.509Z,39.90
2018-06-19T15:27:18.738Z,41.90
2018-06-19T15:29:47.147Z,44.40
2018-06-19T15:32:15.503Z,45.10
2018-06-19T15:34:43.700Z,44.00
2018-06-19T15:37:11.934Z,42.50
2018-06-19T15:39:40.199Z,41.20
2018-06-19T15:42:08.400Z,39.60
2018-06-19T15:44:42.714Z,39.50
2018-06-19T15:47:10.953Z,41.70
2018-06-19T15:49:39.197Z,44.70
2018-06-19T15:52:08.289Z,47.20
2018-06-19T15:54:36.696Z,49.20
2018-06-19T15:57:05.149Z,50.40
2018-06-19T15:59:33.382Z,51.30
2018-06-19T16:02:01.595Z,52.00
2018-06-19T16:04:30.086Z,52.90
2018-06-19T16:06:58.254Z,52.60
2018-06-19T16:09:26.449Z,51.40
2018-06-19T16:11:54.777Z,51.00
2018-06-19T16:14:23.150Z,49.30
2018-06-19T16:16:51.367Z,46.60
2018-06-19T16:19:19.913Z,44.00
2018-06-19T16:21:48.129Z,42.30
2018-06-19T16:24:16.314Z,42.10
2018-06-19T16:26:44.518Z,42.70
2018-06-19T16:29:12.774Z,43.00
2018-06-19T16:31:40.982Z,43.30
2018-06-19T16:36:37.386Z,40.30
2018-06-19T16:39:07.854Z,39.80
2018-06-19T16:41:36.249Z,39.50
2018-06-19T16:44:04.886Z,38.20
2018-06-19T16:46:33.113Z,37.60
2018-06-19T16:49:01.314Z,39.30
2018-06-19T16:51:29.527Z,41.60
2018-06-19T16:53:57.860Z,43.60
2018-06-19T16:56:26.097Z,44.10
2018-06-19T16:58:54.346Z,44.80
2018-06-19T17:01:22.690Z,45.70
2018-06-19T17:03:50.866Z,46.80
2018-06-19T17:06:19.084Z,47.90
2018-06-19T17:08:47.281Z,48.80
2018-06-19T17:11:15.525Z,49.30
2018-06-19T17:13:43.904Z,49.40
2018-06-19T17:16:12.306Z,49.10
2018-06-19T17:18:40.561Z,49.20
2018-06-19T17:21:08.772Z,49.20
2018-06-19T17:23:36.967Z,48.90
2018-06-19T17:26:05.525Z,47.40
2018-06-19T17:28:33.738Z,44.20
2018-06-19T17:31:02.013Z,40.90
2018-06-19T17:33:30.246Z,37.90
2018-06-19T17:35:58.482Z,35.50
2018-06-19T17:38:26.762Z,33.80
2018-06-19T17:40:55.044Z,32.40
2018-06-19T17:45:51.258Z,30.50
2018-06-19T17:48:19.616Z,29.80
2018-06-19T17:50:47.881Z,29.30
2018-06-19T17:55:44.176Z,28.40
2018-06-19T17:58:12.405Z,28.00
2018-06-19T18:00:40.749Z,27.80
2018-06-19T18:03:09.040Z,27.50
2018-06-19T18:05:37.450Z,27.30
2018-06-19T18:08:05.989Z,27.10
2018-06-19T18:10:34.682Z,26.90
2018-06-19T18:13:02.913Z,26.80
2018-06-19T18:15:31.155Z,26.60
2018-06-19T18:17:59.382Z,26.40
2018-06-19T18:20:27.642Z,26.30
2018-06-19T18:22:55.876Z,26.10
2018-06-19T18:25:24.909Z,26.00
2018-06-19T18:27:53.194Z,25.90
2018-06-19T18:30:21.437Z,25.80
2018-06-19T18:32:49.774Z,25.70
2018-06-19T18:35:18.190Z,25.60
2018-06-19T18:37:46.397Z,25.40
2018-06-19T18:40:14.638Z,25.40
2018-06-19T18:42:43.438Z,25.20
2018-06-19T18:45:11.650Z,25.10
2018-06-19T18:47:39.876Z,25.10
2018-06-19T18:50:08.130Z,25.00
2018-06-19T18:52:36.330Z,24.90
2018-06-19T18:55:04.559Z,24.80
2018-06-19T18:57:32.827Z,24.80
2018-06-19T19:00:01.074Z,24.70
2018-06-19T19:02:29.327Z,24.60
2018-06-19T19:04:57.548Z,24.50
2018-06-19T19:07:25.834Z,24.50
2018-06-19T19:09:59.247Z,24.40
2018-06-19T19:12:27.514Z,24.30
2018-06-19T19:15:01.114Z,24.20
2018-06-19T19:17:34.775Z,24.10
2018-06-19T19:20:03.170Z,24.00
2018-06-19T19:22:31.381Z,23.90
2018-06-19T19:24:59.613Z,23.90
2018-06-19T19:27:33.305Z,23.80
2018-06-19T19:30:01.513Z,23.70
2018-06-19T19:32:29.762Z,23.70
2018-06-19T19:34:58.012Z,23.60
2018-06-19T19:37:31.498Z,23.60
2018-06-19T19:39:59.718Z,23.50
2018-06-19T19:42:27.948Z,23.40
2018-06-19T19:47:29.546Z,23.30
2018-06-19T19:49:57.777Z,23.20
2018-06-19T19:52:26.066Z,23.20
2018-06-19T19:57:27.679Z,23.10
2018-06-19T19:59:55.952Z,23.10
2018-06-19T20:02:24.182Z,23.00
2018-06-19T20:04:52.417Z,22.90
2018-06-19T20:07:20.645Z,22.90
2018-06-19T20:12:16.905Z,22.80
2018-06-19T20:14:45.149Z,22.80
2018-06-19T20:17:13.602Z,22.70
2018-06-19T20:19:41.827Z,22.70
2018-06-19T20:22:10.046Z,22.70
2018-06-19T20:24:38.358Z,22.60
2018-06-19T20:27:06.614Z,22.60
2018-06-19T20:29:34.865Z,22.50
2018-06-19T20:32:03.083Z,22.50
2018-06-19T20:34:31.319Z,22.50
2018-06-19T20:36:59.570Z,22.50
2018-06-19T20:39:27.839Z,22.40
2018-06-19T20:41:56.102Z,22.40
2018-06-19T20:46:52.334Z,22.30
2018-06-19T20:49:20.592Z,22.30
2018-06-19T20:51:48.845Z,22.30
2018-06-19T20:54:17.038Z,22.30
2018-06-19T20:56:45.301Z,22.20
2018-06-19T20:59:13.549Z,22.20
2018-06-19T21:01:41.977Z,22.20
2018-06-19T21:04:10.219Z,22.20
2018-06-19T21:06:38.437Z,22.20
2018-06-19T21:09:07.709Z,22.20
2018-06-19T21:11:36.067Z,22.10
2018-06-19T21:14:04.314Z,22.10
2018-06-19T21:16:32.586Z,22.10
2018-06-19T21:19:00.822Z,22.10
2018-06-19T21:21:29.059Z,22.00
2018-06-19T21:23:57.427Z,21.90
2018-06-19T21:26:25.678Z,21.90
2018-06-19T21:28:53.870Z,21.80
2018-06-19T21:31:22.093Z,21.80
2018-06-19T21:33:50.295Z,21.70
2018-06-19T21:36:18.524Z,21.70
2018-06-19T21:38:46.745Z,21.60
2018-06-19T21:41:14.973Z,21.50
2018-06-19T21:43:43.190Z,21.50
2018-06-19T21:46:11.429Z,21.40
2018-06-19T21:48:39.706Z,21.40
2018-06-19T21:51:07.925Z,21.30
2018-06-19T21:53:36.155Z,21.30
2018-06-19T21:56:04.417Z,21.20
2018-06-19T21:58:32.639Z,21.20
2018-06-19T22:01:00.845Z,21.10
2018-06-19T22:05:57.057Z,21.00
2018-06-19T22:08:29.533Z,21.00
2018-06-19T22:10:57.750Z,21.00
2018-06-19T22:13:25.974Z,20.90
2018-06-19T22:15:54.226Z,20.90
2018-06-19T22:18:22.438Z,20.90
2018-06-19T22:20:50.662Z,20.90
2018-06-19T22:23:18.885Z,20.80
2018-06-19T22:25:47.112Z,20.80
2018-06-19T22:28:15.575Z,20.70
2018-06-19T22:30:43.798Z,20.60
2018-06-19T22:33:12.061Z,20.60
2018-06-19T22:35:40.290Z,20.60
2018-06-19T22:38:08.508Z,20.50
2018-06-19T22:40:36.977Z,20.50
2018-06-19T22:43:05.207Z,20.50
2018-06-19T22:45:33.444Z,20.50
2018-06-19T22:48:01.664Z,20.40
2018-06-19T22:50:30.034Z,20.40
2018-06-19T22:52:58.287Z,20.30
2018-06-19T22:55:26.531Z,20.30
2018-06-19T22:57:54.753Z,20.30
2018-06-19T23:00:23.559Z,20.30
2018-06-19T23:02:52.978Z,20.30
2018-06-19T23:05:21.202Z,20.20
2018-06-19T23:07:49.402Z,20.10
2018-06-19T23:10:17.650Z,20.10
2018-06-19T23:12:46.042Z,20.00
2018-06-19T23:15:14.258Z,20.10
2018-06-19T23:17:42.473Z,20.00
2018-06-19T23:20:10.682Z,20.00
2018-06-19T23:22:38.916Z,19.90
2018-06-19T23:25:07.206Z,19.90
2018-06-19T23:27:35.417Z,19.80
2018-06-19T23:30:03.674Z,19.80
2018-06-19T23:32:31.891Z,19.80
2018-06-19T23:35:00.466Z,19.80
2018-06-19T23:39:56.654Z,19.70
2018-06-19T23:42:24.891Z,19.70
2018-06-19T23:44:53.098Z,19.60
2018-06-19T23:47:21.311Z,19.60
2018-06-19T23:49:49.491Z,19.50
2018-06-19T23:52:17.722Z,19.50
2018-06-19T23:54:45.908Z,19.50
2018-06-19T23:57:14.413Z,19.40
2018-06-19T23:59:42.678Z,19.40
